KJST/JST METAR and TAF weather

Enter ICAO airport designator
Station Type Date Time Source
KJST METAR 2023/02/06 19:54 UTC NOAA

KJST 061954Z AUTO 31010KT 8SM OVC007 M01/M03 A3013 RMK AO2 SLP224 T10111028


Station Type Date Time Source
KJST Decoded METAR 2023/02/06 19:54 UTC NOAA

JOHNSTOWN-CAMBRIA CO AIRPORT , PA, United States (KJST) 40-19N 078-50W 694M
Feb 06, 2023 - 02:54 PM EST / 2023.02.06 1954 UTC
Wind: from the NW (310 degrees) at 12 MPH (10 KT):0
Visibility: 8 mile(s):0
Sky conditions: overcast
Temperature: 30.0 F (-1.1 C)
Windchill: 19 F (-7 C):1
Dew Point: 27.0 F (-2.8 C)
Relative Humidity: 88%
Pressure (altimeter): 30.13 in. Hg (1020 hPa)
ob: KJST 061954Z AUTO 31010KT 8SM OVC007 M01/M03 A3013 RMK AO2 SLP224 T10111028
cycle: 20

Station Type Date Time Source
KJST TAF 2023/02/06 18:51 UTC NOAA

KJST 061723Z 0618/0718 31013KT 4SM BR OVC003
TEMPO 0618/0619 2SM BR OVC002
FM062000 31010KT 6SM BR OVC008
FM070300 20004KT 6SM BR BKN250
FM071300 18008G19KT P6SM BKN150

Example: see airport list